Time;durP1;ratioP1;P1;durP2;ratioP2;P2;SDS_P1;SDS_P2;PMS_P1;PMS_P2;Temp;Humidity;BMP_temperature;BMP_pressure;BME280_temperature;BME280_humidity;BME280_pressure;Samples;Min_cycle;Max_cycle;Signal;HPM_P1;HPM_P2
2023/10/07 00:02:12;;;;;;;7.17;3.97;;;17.00;6.70;;;;;;6133090;23;20425;-87
2023/10/07 00:04:40;;;;;;;10.77;3.50;;;17.00;77.50;;;;;;6150704;23;20449;-84
2023/10/07 00:07:10;;;;;;;3.30;3.00;;;17.00;99.90;;;;;;6153615;23;20418;-87
2023/10/07 00:09:39;;;;;;;5.10;3.17;;;17.00;4.20;;;;;;6155048;23;20402;-87
2023/10/07 00:12:12;;;;;;;5.00;3.20;;;17.00;99.90;;;;;;6146928;23;21032;-87
2023/10/07 00:14:39;;;;;;;8.07;3.00;;;17.00;99.90;;;;;;6133749;23;20396;-88
2023/10/07 00:17:11;;;;;;;4.37;3.40;;;16.80;99.90;;;;;;6132808;23;20437;-87
2023/10/07 00:19:39;;;;;;;3.20;2.73;;;17.00;87.20;;;;;;6132166;23;20390;-87
2023/10/07 00:22:08;;;;;;;4.10;2.80;;;16.90;53.40;;;;;;6141832;23;20438;-87
2023/10/07 00:24:40;;;;;;;3.97;2.90;;;16.70;99.90;;;;;;6133751;23;20417;-87
2023/10/07 00:27:20;;;;;;;6.23;3.60;;;17.00;99.90;;;;;;6132581;23;20417;-85
2023/10/07 00:29:54;;;;;;;6.83;3.30;;;17.00;10.20;;;;;;6130683;23;20433;-87
2023/10/07 00:32:26;;;;;;;4.60;2.93;;;17.10;99.90;;;;;;6139340;23;20438;-87
2023/10/07 00:34:53;;;;;;;7.83;3.87;;;17.10;99.90;;;;;;6138327;23;20393;-86
2023/10/07 00:37:20;;;;;;;10.10;4.70;;;17.00;51.50;;;;;;6132508;23;20431;-87
2023/10/07 00:39:47;;;;;;;4.77;3.10;;;17.10;35.50;;;;;;6131004;23;20505;-87
2023/10/07 00:42:15;;;;;;;3.50;2.90;;;17.30;99.90;;;;;;6130998;23;20433;-86
2023/10/07 00:44:44;;;;;;;3.40;3.10;;;17.10;99.90;;;;;;6130944;23;20480;-86
2023/10/07 00:47:14;;;;;;;5.43;3.57;;;17.10;99.90;;;;;;6149547;23;20739;-86
2023/10/07 00:49:43;;;;;;;3.80;3.00;;;17.20;99.90;;;;;;6153905;23;20413;-87
2023/10/07 00:52:14;;;;;;;5.17;2.87;;;17.20;94.80;;;;;;6146769;23;20429;-86
2023/10/07 00:54:50;;;;;;;4.40;3.40;;;17.20;99.90;;;;;;6139883;23;20397;-87
2023/10/07 00:57:35;;;;;;;5.00;3.50;;;17.00;99.90;;;;;;6141158;23;20508;-87
2023/10/07 01:00:12;;;;;;;5.60;3.23;;;17.20;50.50;;;;;;6139558;23;20449;-87
2023/10/07 01:02:39;;;;;;;5.53;3.30;;;17.20;99.90;;;;;;6149884;23;20419;-87
2023/10/07 01:05:12;;;;;;;4.50;4.10;;;17.20;99.90;;;;;;6150463;23;20401;-86
2023/10/07 01:07:40;;;;;;;4.27;3.27;;;17.10;99.90;;;;;;6148226;23;20423;-88
2023/10/07 01:10:13;;;;;;;5.00;3.07;;;17.20;99.90;;;;;;6154556;23;20453;-86
2023/10/07 01:12:43;;;;;;;6.20;3.57;;;17.10;99.90;;;;;;6152335;23;20393;-87
2023/10/07 01:15:22;;;;;;;5.60;3.43;;;17.10;99.90;;;;;;6151890;23;20394;-86
2023/10/07 01:17:53;;;;;;;6.03;3.10;;;16.90;99.90;;;;;;6152622;23;20445;-87
2023/10/07 01:20:22;;;;;;;4.03;3.00;;;17.10;99.90;;;;;;6147569;23;20421;-86
2023/10/07 01:23:02;;;;;;;4.53;3.23;;;17.10;99.90;;;;;;6148877;23;20400;-87
2023/10/07 01:25:31;;;;;;;3.83;3.50;;;17.10;99.90;;;;;;6134488;23;20758;-87
2023/10/07 01:28:01;;;;;;;7.83;3.07;;;17.10;99.90;;;;;;6133887;23;20798;-87
2023/10/07 01:30:29;;;;;;;4.10;2.97;;;17.20;99.90;;;;;;6131454;23;20513;-86
2023/10/07 01:33:02;;;;;;;4.20;3.17;;;17.30;1.00;;;;;;6130382;23;20427;-86
2023/10/07 01:35:33;;;;;;;8.30;2.53;;;17.10;99.90;;;;;;6130882;23;20390;-86
2023/10/07 01:38:07;;;;;;;7.30;3.23;;;17.20;99.90;;;;;;6142627;23;20388;-87
2023/10/07 01:40:45;;;;;;;4.30;2.97;;;17.20;99.90;;;;;;6147901;23;20418;-87
2023/10/07 01:43:12;;;;;;;6.30;3.20;;;17.30;99.90;;;;;;6147228;23;20411;-87
2023/10/07 01:45:39;;;;;;;4.53;2.97;;;17.40;1.00;;;;;;6150191;23;20414;-85
2023/10/07 01:48:08;;;;;;;5.03;3.17;;;17.10;99.90;;;;;;6151020;23;20434;-86
2023/10/07 01:50:39;;;;;;;5.90;3.13;;;17.20;99.90;;;;;;6150587;23;20445;-86
2023/10/07 01:53:08;;;;;;;6.10;2.63;;;17.20;99.90;;;;;;6148469;23;20448;-87
2023/10/07 01:55:42;;;;;;;5.03;2.53;;;17.20;99.90;;;;;;6148729;23;20424;-87
2023/10/07 01:58:09;;;;;;;8.80;2.83;;;17.10;99.90;;;;;;6148531;23;20380;-86
2023/10/07 02:00:40;;;;;;;3.73;2.87;;;17.10;99.90;;;;;;6149617;23;20517;-87
2023/10/07 02:03:09;;;;;;;6.10;3.23;;;17.20;99.90;;;;;;6150527;23;20378;-86
2023/10/07 02:05:40;;;;;;;7.00;3.50;;;17.20;99.90;;;;;;6151659;23;20395;-86
2023/10/07 02:08:12;;;;;;;3.90;3.13;;;17.20;99.90;;;;;;6152982;23;20397;-85
2023/10/07 02:10:40;;;;;;;7.30;3.80;;;17.20;99.90;;;;;;6151305;23;20516;-86
2023/10/07 02:13:08;;;;;;;4.63;3.03;;;17.20;99.90;;;;;;6150324;23;20448;-86
2023/10/07 02:15:37;;;;;;;4.10;3.70;;;17.30;99.90;;;;;;6153151;23;20480;-86
2023/10/07 02:18:05;;;;;;;8.73;3.60;;;17.10;99.90;;;;;;6153684;23;20448;-85
2023/10/07 02:20:38;;;;;;;4.93;3.00;;;17.20;1.00;;;;;;6154512;23;20464;-86
2023/10/07 02:23:15;;;;;;;5.20;3.13;;;17.10;99.90;;;;;;6154747;23;20446;-86
2023/10/07 02:25:42;;;;;;;8.40;3.70;;;17.10;99.90;;;;;;6154544;23;20419;-86
2023/10/07 02:28:09;;;;;;;6.47;3.50;;;17.10;99.90;;;;;;6154552;23;20417;-85
2023/10/07 06:02:12;;;;;;;5.90;4.00;;;16.80;99.90;;;;;;6143485;23;20455;-86
2023/10/07 06:04:41;;;;;;;13.10;5.33;;;;;;;;;;6208325;23;20474;-86
2023/10/07 06:07:08;;;;;;;8.47;4.80;;;;;;;;;;6211892;23;20426;-87
2023/10/07 06:09:37;;;;;;;6.03;5.43;;;;;;;;;;6200411;23;20414;-87
2023/10/07 06:12:07;;;;;;;6.60;5.90;;;16.80;1.00;;;;;;6189817;23;20443;-87
2023/10/07 06:14:35;;;;;;;10.30;5.90;;;;;;;;;;6188624;23;20435;-88
2023/10/07 06:17:06;;;;;;;10.57;4.93;;;16.70;1.00;;;;;;6189152;23;20739;-87
2023/10/07 06:19:34;;;;;;;10.13;4.67;;;;;;;;;;6189032;23;20394;-87
2023/10/07 06:22:11;;;;;;;10.20;4.70;;;16.70;1.00;;;;;;6188003;23;20492;-87
2023/10/07 06:24:39;;;;;;;8.30;5.60;;;;;;;;;;6198239;23;20404;-87
2023/10/07 06:27:11;;;;;;;7.97;5.37;;;16.50;99.90;;;;;;6210968;23;20390;-85
2023/10/07 06:29:43;;;;;;;6.23;5.03;;;16.70;1.00;;;;;;6210908;23;20460;-86
2023/10/07 06:32:23;;;;;;;7.40;5.63;;;16.70;1.00;;;;;;6200234;23;20458;-86
2023/10/07 06:34:57;;;;;;;6.17;5.60;;;16.60;99.90;;;;;;6189823;23;20391;-87
2023/10/07 06:37:29;;;;;;;8.03;6.00;;;16.40;99.90;;;;;;6190495;23;20395;-87
2023/10/07 06:39:57;;;;;;;7.07;6.37;;;16.70;1.00;;;;;;6189678;23;20417;-87
2023/10/07 06:42:25;;;;;;;7.73;5.87;;;16.40;99.90;;;;;;6191653;23;20429;-87
2023/10/07 06:44:54;;;;;;;9.43;6.40;;;16.30;1.00;;;;;;6200179;23;20395;-87
2023/10/07 06:47:24;;;;;;;9.87;8.67;;;16.00;99.90;;;;;;6204407;23;20901;-87
2023/10/07 06:49:52;;;;;;;7.63;6.47;;;16.30;1.00;;;;;;6212711;23;20399;-86
2023/10/07 06:52:22;;;;;;;9.50;6.20;;;16.00;99.90;;;;;;6213034;23;20446;-86
2023/10/07 06:54:49;;;;;;;10.57;6.43;;;16.00;1.00;;;;;;6213219;23;20410;-86
2023/10/07 06:57:17;;;;;;;11.03;7.00;;;16.10;1.00;;;;;;6204035;23;20435;-86
2023/10/07 06:59:45;;;;;;;8.33;6.40;;;16.00;1.00;;;;;;6197292;23;20411;-87
2023/10/07 07:02:18;;;;;;;9.43;6.70;;;16.00;1.00;;;;;;6189161;23;20442;-87
2023/10/07 07:04:47;;;;;;;6.40;5.70;;;16.00;1.00;;;;;;6191003;23;20398;-87
2023/10/07 07:07:16;;;;;;;6.07;5.57;;;16.20;1.00;;;;;;6191068;23;20417;-87
2023/10/07 07:09:50;;;;;;;13.03;6.77;;;16.00;99.90;;;;;;6190163;23;20713;-87
2023/10/07 07:12:21;;;;;;;7.13;6.43;;;16.00;99.90;;;;;;6190076;23;20447;-87
2023/10/07 07:14:51;;;;;;;6.30;5.70;;;16.10;99.90;;;;;;6212828;23;20398;-86
2023/10/07 07:17:35;;;;;;;7.40;6.63;;;16.00;1.00;;;;;;6205514;23;20422;-87
2023/10/07 07:22:51;;;;;;;10.40;6.70;;;15.70;99.90;;;;;;6190193;23;20905;-87
2023/10/07 07:25:34;;;;;;;7.60;6.90;;;15.90;99.90;;;;;;6190116;23;20461;-88
2023/10/07 07:28:04;;;;;;;12.47;8.20;;;15.60;99.90;;;;;;6189880;23;20391;-87
2023/10/07 07:30:31;;;;;;;9.63;8.60;;;15.50;99.90;;;;;;6204363;23;20407;-87
2023/10/07 07:32:59;;;;;;;13.20;7.10;;;15.80;99.90;;;;;;6214228;23;20438;-87
2023/10/07 07:35:39;;;;;;;7.93;6.83;;;15.80;99.90;;;;;;6213091;23;20490;-87
2023/10/07 07:40:49;;;;;;;6.67;6.07;;;16.00;99.90;;;;;;6193556;23;20469;-87
2023/10/07 07:43:20;;;;;;;9.60;6.90;;;15.90;99.90;;;;;;6196665;23;20747;-86
2023/10/07 07:45:55;;;;;;;9.20;7.27;;;16.00;99.90;;;;;;6195367;23;20387;-87
2023/10/07 07:48:25;;;;;;;9.73;7.70;;;16.00;97.40;;;;;;6196077;23;20387;-87
2023/10/07 07:50:55;;;;;;;8.37;6.13;;;16.20;1.00;;;;;;6192969;23;20510;-86
2023/10/07 07:53:22;;;;;;;7.37;6.40;;;16.20;1.00;;;;;;6208098;23;20430;-86
2023/10/07 07:55:51;;;;;;;6.53;5.93;;;16.30;99.90;;;;;;6193022;23;20403;-87
2023/10/07 07:58:18;;;;;;;7.53;6.37;;;16.10;1.00;;;;;;6192020;23;20928;-86
2023/10/07 08:00:52;;;;;;;8.90;5.87;;;16.20;99.90;;;;;;6196080;23;20400;-86
2023/10/07 08:03:22;;;;;;;12.17;7.27;;;16.20;1.00;;;;;;6199905;23;20395;-88
2023/10/07 08:05:49;;;;;;;6.50;5.80;;;16.40;1.00;;;;;;6195581;23;20759;-87
2023/10/07 08:08:24;;;;;;;6.07;5.53;;;16.20;99.90;;;;;;6196564;23;20404;-87
2023/10/07 08:10:54;;;;;;;6.00;5.40;;;15.90;95.90;;;;;;6195044;23;20549;-86
2023/10/07 08:13:27;;;;;;;8.50;5.50;;;16.70;1.00;;;;;;6205156;23;20525;-87
2023/10/07 08:15:54;;;;;;;6.50;5.90;;;16.60;97.40;;;;;;6194975;23;20419;-87
2023/10/07 08:18:28;;;;;;;6.43;5.10;;;16.50;1.00;;;;;;6208462;23;20738;-87
2023/10/07 08:21:06;;;;;;;5.83;4.80;;;16.60;99.90;;;;;;6201517;23;20426;-87
2023/10/07 08:23:36;;;;;;;5.90;5.30;;;16.40;23.60;;;;;;6193997;23;20467;-88
2023/10/07 08:26:14;;;;;;;7.00;5.10;;;16.40;99.90;;;;;;6193921;23;20407;-88
2023/10/07 08:29:00;;;;;;;8.30;5.47;;;16.70;1.00;;;;;;6192589;23;20439;-88
2023/10/07 08:31:37;;;;;;;6.47;5.97;;;16.70;1.00;;;;;;6193016;23;20439;-88
2023/10/07 08:34:09;;;;;;;10.20;5.43;;;;;;;;;;6193846;23;20387;-88
2023/10/07 08:36:37;;;;;;;8.53;5.80;;;16.70;1.00;;;;;;6192732;23;20430;-88
2023/10/07 08:39:09;;;;;;;6.97;6.20;;;16.70;99.90;;;;;;6193932;23;20395;-87
2023/10/07 08:41:40;;;;;;;8.23;6.40;;;16.70;1.00;;;;;;6213037;23;20439;-87
2023/10/07 08:44:15;;;;;;;6.53;6.00;;;16.40;1.00;;;;;;6212919;23;20411;-87
2023/10/07 08:46:48;;;;;;;5.67;5.10;;;16.70;99.90;;;;;;6198741;23;20387;-86
2023/10/07 08:49:24;;;;;;;8.57;7.43;;;16.70;99.90;;;;;;6189989;23;20406;-88
2023/10/07 08:51:53;;;;;;;8.60;5.57;;;16.60;1.00;;;;;;6191567;23;20453;-87
2023/10/07 08:54:26;;;;;;;8.67;5.90;;;16.70;1.00;;;;;;6189274;23;20408;-87
2023/10/07 08:56:57;;;;;;;6.20;5.60;;;16.70;1.00;;;;;;6193585;23;20396;-88
2023/10/07 08:59:30;;;;;;;4.63;4.23;;;;;;;;;;6192886;23;20418;-87
2023/10/07 09:02:26;;;;;;;6.90;5.43;;;17.00;99.90;;;;;;6193761;23;20443;-88
2023/10/07 09:04:54;;;;;;;5.83;5.23;;;;;;;;;;6205856;23;20415;-87
2023/10/07 09:07:21;;;;;;;7.57;5.57;;;;;;;;;;6213666;23;20408;-86
2023/10/07 09:09:52;;;;;;;5.20;4.60;;;16.80;1.00;;;;;;6214035;23;20399;-86
2023/10/07 09:12:29;;;;;;;6.27;5.70;;;;;;;;;;6202701;23;20448;-87
2023/10/07 09:15:00;;;;;;;12.53;6.10;;;16.80;1.00;;;;;;6190879;23;20394;-87
2023/10/07 09:17:27;;;;;;;6.13;5.53;;;;;;;;;;6195986;23;20392;-87
2023/10/07 09:19:58;;;;;;;8.17;6.00;;;16.90;1.00;;;;;;6205670;23;20414;-86
2023/10/07 09:22:33;;;;;;;5.70;5.23;;;17.00;1.00;;;;;;6209112;23;20773;-86
2023/10/07 09:25:09;;;;;;;6.20;5.70;;;16.90;1.00;;;;;;6211589;23;20420;-86
2023/10/07 09:27:37;;;;;;;6.23;5.67;;;16.70;99.90;;;;;;6207345;23;20427;-86
2023/10/07 09:30:34;;;;;;;9.00;7.97;;;17.00;99.90;;;;;;6212755;23;20472;-87
2023/10/07 09:32:57;;;;;;;8.33;7.60;;;;;;;;;;6213633;23;20439;-86
2023/10/07 09:35:25;;;;;;;6.90;6.20;;;16.90;1.00;;;;;;6213282;23;20415;-86
2023/10/07 09:37:55;;;;;;;7.17;5.90;;;17.30;1.00;;;;;;6208612;23;20414;-86
2023/10/07 09:43:13;;;;;;;6.73;6.13;;;16.90;99.90;;;;;;6197672;23;20772;-88
2023/10/07 09:45:41;;;;;;;7.17;5.90;;;16.90;1.00;;;;;;6194855;23;20384;-87
2023/10/07 09:48:09;;;;;;;10.40;6.87;;;16.90;1.00;;;;;;6195060;23;20391;-87
2023/10/07 09:50:42;;;;;;;7.90;5.93;;;16.90;1.00;;;;;;6195851;23;20403;-86
2023/10/07 09:53:49;;;;;;;9.10;6.53;;;16.90;1.00;;;;;;6194055;23;20432;-87
2023/10/07 09:56:29;;;;;;;10.70;7.57;;;16.50;1.00;;;;;;6198743;23;20419;-87
2023/10/07 09:59:14;;;;;;;8.07;7.33;;;16.70;1.00;;;;;;6201778;23;20442;-87
2023/10/07 10:01:58;;;;;;;8.40;7.70;;;16.90;1.00;;;;;;6199524;23;20821;-86
2023/10/07 10:04:49;;;;;;;10.00;9.10;;;16.80;1.00;;;;;;6194686;23;20398;-87
2023/10/07 10:07:42;;;;;;;10.70;8.53;;;16.90;58.60;;;;;;6197039;23;20383;-87
2023/10/07 10:10:13;;;;;;;9.60;8.40;;;16.90;1.00;;;;;;6195838;23;20407;-86
2023/10/07 10:12:56;;;;;;;9.97;8.97;;;16.80;99.90;;;;;;6196669;23;20444;-86
2023/10/07 10:15:51;;;;;;;9.93;8.63;;;16.80;99.90;;;;;;6196585;23;20392;-87
2023/10/07 10:18:38;;;;;;;10.87;9.17;;;16.80;99.90;;;;;;6207286;23;20404;-87
2023/10/07 10:21:17;;;;;;;12.47;10.93;;;18.70;99.90;;;;;;6208393;23;20431;-86
2023/10/07 10:23:45;;;;;;;10.73;9.60;;;;;;;;;;6203802;23;20387;-88
2023/10/07 10:26:20;;;;;;;12.60;9.73;;;16.80;99.90;;;;;;6200234;23;20395;-86
2023/10/07 10:29:07;;;;;;;11.77;9.87;;;16.90;1.00;;;;;;6198037;23;20419;-87
2023/10/07 10:31:35;;;;;;;10.77;9.60;;;;;;;;;;6194731;23;20432;-87
2023/10/07 10:34:08;;;;;;;11.03;9.93;;;16.90;1.00;;;;;;6194439;23;20440;-87
2023/10/07 10:36:41;;;;;;;11.50;9.43;;;17.00;99.90;;;;;;6211473;23;20391;-87
2023/10/07 10:39:22;;;;;;;13.10;10.80;;;17.20;1.00;;;;;;6212779;23;20389;-85
2023/10/07 10:41:51;;;;;;;11.40;10.23;;;;;;;;;;6213439;23;20418;-86
2023/10/07 10:44:20;;;;;;;11.40;10.27;;;17.00;1.00;;;;;;6212992;23;20389;-86
2023/10/07 10:46:49;;;;;;;12.20;11.00;;;17.00;1.00;;;;;;6211748;23;20415;-87
2023/10/07 10:49:17;;;;;;;12.53;11.43;;;16.80;1.00;;;;;;6202773;23;20413;-87
2023/10/07 10:51:47;;;;;;;11.67;10.43;;;17.10;99.90;;;;;;6194615;23;20415;-87
2023/10/07 10:54:18;;;;;;;13.20;10.50;;;17.20;99.90;;;;;;6193750;23;20441;-87
2023/10/07 10:56:48;;;;;;;12.57;11.37;;;17.00;99.90;;;;;;6204228;23;20407;-86
2023/10/07 10:59:15;;;;;;;14.63;12.97;;;17.20;99.90;;;;;;6213867;23;20391;-85
2023/10/07 11:01:49;;;;;;;12.40;11.17;;;17.10;1.00;;;;;;6212857;23;20526;-87
2023/10/07 11:04:20;;;;;;;13.83;12.40;;;;;;;;;;6212026;23;20410;-87
2023/10/07 11:06:51;;;;;;;14.90;11.90;;;;;;;;;;6213439;23;20409;-85
2023/10/07 11:09:36;;;;;;;14.60;13.10;;;16.90;86.60;;;;;;6211923;23;20377;-86
2023/10/07 11:12:12;;;;;;;13.67;12.37;;;;;;;;;;6210932;23;20434;-86
2023/10/07 11:14:47;;;;;;;14.77;13.27;;;16.80;91.20;;;;;;6211851;23;20379;-87
2023/10/07 11:17:16;;;;;;;13.73;11.77;;;16.80;99.90;;;;;;6211197;23;20418;-87
2023/10/07 11:19:51;;;;;;;14.03;11.27;;;16.80;1.00;;;;;;6212520;23;20396;-87
2023/10/07 11:22:26;;;;;;;14.43;12.93;;;16.80;1.00;;;;;;6197598;23;20523;-88
2023/10/07 11:24:53;;;;;;;13.30;12.13;;;;;;;;;;6194599;23;20410;-86
2023/10/07 11:27:26;;;;;;;17.00;12.20;;;16.90;1.00;;;;;;6192759;23;20416;-87
2023/10/07 11:30:01;;;;;;;12.43;10.87;;;16.90;1.00;;;;;;6192611;23;20700;-87
2023/10/07 11:32:34;;;;;;;13.13;11.73;;;16.80;1.00;;;;;;6192082;23;20905;-87
2023/10/07 11:35:01;;;;;;;14.67;12.30;;;;;;;;;;6191303;23;20405;-88
2023/10/07 11:37:32;;;;;;;14.30;11.97;;;17.00;1.00;;;;;;6190703;23;20454;-87
2023/10/07 11:40:02;;;;;;;14.03;10.83;;;17.10;99.90;;;;;;6191167;23;20400;-86
2023/10/07 11:42:29;;;;;;;14.77;12.10;;;;;;;;;;6190487;23;20524;-87
2023/10/07 11:44:56;;;;;;;12.90;10.93;;;17.00;99.90;;;;;;6191234;23;20412;-87
2023/10/07 11:47:24;;;;;;;11.70;10.50;;;;;;;;;;6190393;23;20434;-86
2023/10/07 11:49:52;;;;;;;12.17;10.93;;;17.10;99.90;;;;;;6190179;23;20926;-86
2023/10/07 11:52:20;;;;;;;15.03;11.10;;;17.10;1.00;;;;;;6191763;23;20485;-86
2023/10/07 11:54:48;;;;;;;12.80;11.27;;;16.90;1.00;;;;;;6191307;23;20482;-86
2023/10/07 11:57:18;;;;;;;13.40;11.77;;;16.20;99.90;;;;;;6192363;23;20409;-87
2023/10/07 11:59:45;;;;;;;13.50;11.97;;;16.90;96.50;;;;;;6191999;23;20930;-86
2023/10/07 14:16:42;;;;;;;13.60;9.30;;;17.90;99.90;;;;;;6083201;23;20526;-87
2023/10/07 14:19:09;;;;;;;10.50;8.50;;;;;;;;;;6191421;23;20419;-88
2023/10/07 14:21:40;;;;;;;13.30;9.40;;;;;;;;;;6190373;23;20721;-87
2023/10/07 14:24:08;;;;;;;9.70;8.33;;;;;;;;;;6201886;23;20405;-87
2023/10/07 14:26:36;;;;;;;11.80;7.80;;;;;;;;;;6199754;23;20465;-88
2023/10/07 14:29:13;;;;;;;11.27;8.23;;;18.00;4.80;;;;;;6200850;23;20418;-88
2023/10/07 14:31:44;;;;;;;9.60;7.43;;;18.00;1.00;;;;;;6206070;23;20381;-87
2023/10/07 14:34:13;;;;;;;9.37;8.20;;;;;;;;;;6199993;23;20448;-87
2023/10/07 14:36:46;;;;;;;10.50;8.50;;;;;;;;;;6197850;23;20439;-87
2023/10/07 14:39:15;;;;;;;8.43;7.40;;;;;;;;;;6198853;23;20412;-87
2023/10/07 14:41:42;;;;;;;15.53;9.23;;;17.80;99.90;;;;;;6207681;23;20448;-86
2023/10/07 14:44:10;;;;;;;17.50;9.40;;;17.30;99.90;;;;;;6206690;23;20555;-87
2023/10/07 14:46:48;;;;;;;15.20;9.27;;;17.20;99.90;;;;;;6206083;23;20425;-87
2023/10/07 14:49:18;;;;;;;12.37;9.80;;;17.50;99.90;;;;;;6205239;23;20405;-87
2023/10/07 14:51:50;;;;;;;13.90;9.37;;;;;;;;;;6203241;23;20427;-87
2023/10/07 14:54:18;;;;;;;13.67;10.63;;;;;;;;;;6205298;23;20455;-87
2023/10/07 14:56:50;;;;;;;10.60;9.50;;;;;;;;;;6200584;23;20478;-86
2023/10/07 14:59:19;;;;;;;16.13;10.77;;;17.00;99.90;;;;;;6197674;23;20418;-86
2023/10/07 15:01:48;;;;;;;14.07;10.77;;;16.80;99.90;;;;;;6196853;23;20411;-86
2023/10/07 15:04:17;;;;;;;14.30;11.37;;;18.00;99.90;;;;;;6190604;23;20462;-86
2023/10/07 15:06:48;;;;;;;16.13;10.80;;;16.40;99.90;;;;;;6189102;23;20415;-87
2023/10/07 15:09:21;;;;;;;18.70;11.13;;;15.40;99.90;;;;;;6190012;23;20424;-86
2023/10/07 15:11:49;;;;;;;11.90;10.70;;;16.50;99.90;;;;;;6190343;23;20394;-86
2023/10/07 15:14:16;;;;;;;9.37;8.23;;;16.50;99.90;;;;;;6202473;23;20438;-86
2023/10/07 15:16:50;;;;;;;7.70;5.63;;;16.40;99.90;;;;;;6212765;23;20423;-85
2023/10/07 15:19:18;;;;;;;5.47;4.93;;;16.20;99.90;;;;;;6213797;23;20417;-84
2023/10/07 15:21:49;;;;;;;8.80;5.93;;;16.00;99.90;;;;;;6213977;23;20415;-84
2023/10/07 15:24:15;;;;;;;4.60;3.87;;;15.90;99.90;;;;;;6198771;23;20419;-86
2023/10/07 15:26:43;;;;;;;4.60;3.10;;;15.90;99.90;;;;;;6214610;23;20426;-85
2023/10/07 15:29:10;;;;;;;2.20;2.10;;;15.70;99.90;;;;;;6213323;23;20418;-86
2023/10/07 15:31:37;;;;;;;4.93;2.30;;;15.40;99.90;;;;;;6205468;23;20933;-86
2023/10/07 15:34:08;;;;;;;2.40;2.03;;;15.60;99.90;;;;;;6202944;23;20419;-86
2023/10/07 15:36:37;;;;;;;2.83;2.00;;;15.50;99.90;;;;;;6208886;23;20419;-86
2023/10/07 15:39:04;;;;;;;2.67;2.10;;;15.40;99.90;;;;;;6193779;23;20399;-86
2023/10/07 15:41:31;;;;;;;2.33;2.13;;;15.50;99.90;;;;;;6212667;23;20411;-87
2023/10/07 15:44:01;;;;;;;2.83;2.40;;;15.40;99.90;;;;;;6213895;23;20475;-84
2023/10/07 15:46:30;;;;;;;4.40;2.70;;;15.40;99.90;;;;;;6215753;23;20441;-83
2023/10/07 15:49:07;;;;;;;19.90;12.27;;;15.40;99.90;;;;;;6215725;23;20398;-85
2023/10/07 15:51:34;;;;;;;2.27;2.03;;;15.40;99.90;;;;;;6215418;23;20387;-84
2023/10/07 15:54:04;;;;;;;4.00;2.87;;;15.40;99.90;;;;;;6211909;23;20447;-86
2023/10/07 15:56:31;;;;;;;1.60;1.50;;;15.30;99.90;;;;;;6213335;23;20430;-86
2023/10/07 15:58:57;;;;;;;2.20;2.00;;;15.40;99.90;;;;;;6214793;23;20391;-85
2023/10/07 16:01:25;;;;;;;1.93;1.70;;;15.40;99.90;;;;;;6214566;23;20411;-85
2023/10/07 16:03:52;;;;;;;1.53;1.40;;;15.30;99.90;;;;;;6209727;23;20415;-86
2023/10/07 16:06:19;;;;;;;1.40;1.30;;;15.30;99.90;;;;;;6197007;23;20447;-86
2023/10/07 16:08:47;;;;;;;2.13;1.50;;;15.30;99.90;;;;;;6198248;23;20406;-87
2023/10/07 16:11:21;;;;;;;2.43;2.00;;;15.20;99.90;;;;;;6198269;23;20434;-86
2023/10/07 16:13:48;;;;;;;1.57;1.47;;;15.20;99.90;;;;;;6207769;23;20486;-87
2023/10/07 16:16:16;;;;;;;4.00;1.50;;;15.30;99.90;;;;;;6213557;23;20445;-84
2023/10/07 16:18:44;;;;;;;1.77;1.63;;;15.30;99.90;;;;;;6213917;23;20419;-86
2023/10/07 16:21:11;;;;;;;2.17;2.00;;;;;;;;;;6214370;23;20403;-85
2023/10/07 16:23:39;;;;;;;1.00;0.90;;;15.10;99.90;;;;;;6214702;23;20465;-85
2023/10/07 16:26:06;;;;;;;1.77;1.10;;;15.10;99.90;;;;;;6214718;23;20426;-85
2023/10/07 16:28:34;;;;;;;1.30;1.20;;;15.00;99.90;;;;;;6214983;23;20418;-85
2023/10/07 16:31:01;;;;;;;1.50;1.40;;;13.40;99.90;;;;;;6215127;23;20388;-86
2023/10/07 16:33:31;;;;;;;1.43;1.33;;;;;;;;;;6214943;23;20431;-86
2023/10/07 16:36:03;;;;;;;1.13;1.03;;;14.90;99.90;;;;;;6214804;23;20439;-84
2023/10/07 16:38:31;;;;;;;1.23;1.13;;;14.90;99.90;;;;;;6206525;23;20398;-88
2023/10/07 16:41:01;;;;;;;2.27;1.33;;;14.80;99.90;;;;;;6197502;23;20407;-87
2023/10/07 16:43:28;;;;;;;1.60;1.50;;;14.80;99.90;;;;;;6197492;23;20462;-86
2023/10/07 16:45:57;;;;;;;1.43;1.33;;;14.80;99.90;;;;;;6196173;23;20458;-86
2023/10/07 16:48:24;;;;;;;2.20;2.00;;;14.60;99.90;;;;;;6198364;23;20399;-87
2023/10/07 16:50:54;;;;;;;2.70;2.30;;;14.80;99.90;;;;;;6196519;23;20439;-86
2023/10/07 16:53:21;;;;;;;2.23;2.03;;;15.00;99.90;;;;;;6197207;23;20498;-86
2023/10/07 16:55:52;;;;;;;2.20;1.83;;;14.60;99.90;;;;;;6197119;23;20459;-87
2023/10/07 16:58:19;;;;;;;1.60;1.50;;;14.60;99.90;;;;;;6197393;23;20422;-86
2023/10/07 17:00:46;;;;;;;2.23;1.83;;;14.50;99.90;;;;;;6195954;23;20409;-86
2023/10/07 17:03:15;;;;;;;1.50;1.40;;;14.50;99.90;;;;;;6198007;23;20434;-87
2023/10/07 17:05:42;;;;;;;3.53;2.40;;;14.50;99.90;;;;;;6197870;23;20435;-86
2023/10/07 17:08:09;;;;;;;5.40;2.23;;;14.40;99.90;;;;;;6195204;23;20411;-87
2023/10/07 17:10:39;;;;;;;2.37;2.00;;;14.20;99.90;;;;;;6194417;23;20410;-87
2023/10/07 17:13:06;;;;;;;2.43;1.93;;;14.40;99.90;;;;;;6196753;23;20490;-87
2023/10/07 17:15:37;;;;;;;1.50;1.40;;;14.40;99.90;;;;;;6203712;23;20486;-84
2023/10/07 17:18:09;;;;;;;3.00;1.97;;;14.20;99.90;;;;;;6214939;23;20391;-85
2023/10/07 17:20:39;;;;;;;4.00;2.63;;;14.30;99.90;;;;;;6214901;23;20383;-85
2023/10/07 17:23:08;;;;;;;2.40;2.20;;;14.30;99.90;;;;;;6204601;23;20388;-86
2023/10/07 17:25:36;;;;;;;2.73;2.53;;;14.30;99.90;;;;;;6199577;23;20419;-86
2023/10/07 17:28:04;;;;;;;3.40;3.10;;;14.50;99.90;;;;;;6198982;23;20419;-87
2023/10/07 17:30:31;;;;;;;4.40;2.90;;;14.40;99.90;;;;;;6200747;23;20434;-87
2023/10/07 17:32:58;;;;;;;3.90;3.10;;;14.40;99.90;;;;;;6208250;23;20414;-87
2023/10/07 17:35:26;;;;;;;3.10;2.80;;;14.50;99.90;;;;;;6197329;23;20450;-86
2023/10/07 17:37:54;;;;;;;3.40;3.10;;;14.40;99.90;;;;;;6197551;23;20415;-87
2023/10/07 17:40:22;;;;;;;3.63;3.00;;;14.30;99.90;;;;;;6200843;23;20418;-87
2023/10/07 17:42:51;;;;;;;6.93;3.20;;;14.30;99.90;;;;;;6200884;23;20400;-87
2023/10/07 17:45:18;;;;;;;3.47;3.10;;;14.30;99.90;;;;;;6198370;23;20950;-87
2023/10/07 17:47:46;;;;;;;4.80;4.07;;;14.30;99.90;;;;;;6201733;23;20395;-85
2023/10/07 17:50:13;;;;;;;5.90;4.07;;;14.20;99.90;;;;;;6210977;23;20446;-86
2023/10/07 17:52:41;;;;;;;3.50;3.20;;;14.20;99.90;;;;;;6212208;23;20391;-86
2023/10/07 17:55:10;;;;;;;7.90;6.37;;;14.10;99.90;;;;;;6210208;23;20493;-86
2023/10/07 17:57:39;;;;;;;8.60;6.17;;;14.10;99.90;;;;;;6205342;23;20407;-86
2023/10/07 18:00:09;;;;;;;6.50;5.07;;;14.20;99.90;;;;;;6203601;23;20739;-85
2023/10/07 18:02:37;;;;;;;9.60;5.17;;;14.10;99.90;;;;;;6196792;23;20407;-86
2023/10/07 18:05:04;;;;;;;8.87;5.20;;;14.20;99.90;;;;;;6194561;23;20423;-86
2023/10/07 18:07:32;;;;;;;4.57;4.07;;;14.20;99.90;;;;;;6194378;23;20411;-85
2023/10/07 18:09:59;;;;;;;7.00;3.97;;;14.20;99.90;;;;;;6192119;23;20998;-88
2023/10/07 18:12:27;;;;;;;3.60;3.00;;;14.10;99.90;;;;;;6204404;23;20395;-86
2023/10/07 18:14:54;;;;;;;5.93;4.83;;;14.00;99.90;;;;;;6194750;23;20503;-86
2023/10/07 18:17:21;;;;;;;6.03;4.40;;;14.20;99.90;;;;;;6195431;23;20411;-86
2023/10/07 18:19:47;;;;;;;7.80;5.57;;;14.20;99.90;;;;;;6197380;23;20445;-86
2023/10/07 18:22:15;;;;;;;7.40;5.80;;;14.20;99.90;;;;;;6195781;23;20407;-86
2023/10/07 18:24:42;;;;;;;8.87;5.40;;;14.00;99.90;;;;;;6194807;23;20411;-86
2023/10/07 18:27:09;;;;;;;6.97;5.57;;;14.10;99.90;;;;;;6191999;23;20448;-86
2023/10/07 18:29:39;;;;;;;3.50;2.57;;;14.10;99.90;;;;;;6192386;23;20407;-87
2023/10/07 18:32:06;;;;;;;1.50;1.40;;;14.00;99.90;;;;;;6194136;23;20384;-86
2023/10/07 18:34:33;;;;;;;1.50;1.30;;;13.80;99.90;;;;;;6192904;23;21003;-86
2023/10/07 18:37:00;;;;;;;2.97;1.77;;;13.60;99.90;;;;;;6190704;23;20734;-87
2023/10/07 18:39:27;;;;;;;3.20;2.80;;;13.60;99.90;;;;;;6193527;23;20952;-86
2023/10/07 18:41:54;;;;;;;4.33;2.67;;;;;;;;;;6192040;23;20757;-86
2023/10/07 18:44:21;;;;;;;1.77;1.67;;;13.70;99.90;;;;;;6191780;23;20443;-86
2023/10/07 18:46:49;;;;;;;2.90;2.13;;;13.70;99.90;;;;;;6195110;23;20823;-85
2023/10/07 18:49:16;;;;;;;2.53;1.57;;;13.60;99.90;;;;;;6193729;23;20411;-86
2023/10/07 18:51:43;;;;;;;2.37;2.17;;;13.50;99.90;;;;;;6195646;23;20806;-85
2023/10/07 18:54:10;;;;;;;5.60;4.67;;;13.60;99.90;;;;;;6196598;23;20446;-85
2023/10/07 18:56:37;;;;;;;2.30;2.10;;;13.60;99.90;;;;;;6200710;23;20949;-86
2023/10/07 18:59:03;;;;;;;2.80;2.27;;;13.60;99.90;;;;;;6200361;23;20410;-86
2023/10/07 19:01:30;;;;;;;2.90;2.70;;;13.50;99.90;;;;;;6208194;23;20411;-86
2023/10/07 19:03:59;;;;;;;1.80;1.70;;;13.40;99.90;;;;;;6208905;23;20403;-87
2023/10/07 19:06:26;;;;;;;1.77;1.47;;;13.30;99.90;;;;;;6207504;23;20434;-86
2023/10/07 19:08:55;;;;;;;2.20;2.00;;;13.40;99.90;;;;;;6199629;23;20960;-86
2023/10/07 19:11:22;;;;;;;2.00;1.90;;;13.40;99.90;;;;;;6190992;23;20484;-86